Aérodrome :
LOGIN :

S'inscrire | Disclaimer

   EN    FR    IT 

 










Légende :    VFR   VFR Marginal   IFR   IFR Intensif   IFR Très Intensif
Visi : 
Plafond : 
>= 8 km
>= 3000ft
5 à 8 km
1000 à 3000 ft
1500m à 5 km
500 à 1000 ft
800 à 1500m
200 à 500 ft
< 800m
< 200 ft
Symboles :   Orages  Brouillard  Fortes neiges  Fortes précipitations  Vent > 20 kt
SIGMETs :   Divers  Orages  Givrage  Turbulence  Onde Orograph.  Cendres Volcan.







- Altitude de l'aérodrome : 12 ft
- Code IATA : BCN


LEBL - Barcelone

DERNIER METAR :
  • 180330Z 33011KT 9999 FEW015 07/05 Q1017 NOSIG

METARs EXPIRÉS :
  • 180300Z 33009KT 9999 FEW015 SCT050 07/06 Q1017 NOSIG
  • 180230Z 27006KT 170V330 9999 -RA FEW012 FEW020TCU SCT035 BKN050 08/06 Q1017 RESHRA TEMPO NSW
  • 180200Z 20008KT 6000 SHRA SCT012 FEW020TCU BKN022 08/07 Q1017 TEMPO NSW
  • 180130Z 27005KT 240V330 8000 SHRA FEW016 FEW020TCU BKN033 09/07 Q1018 TEMPO NSW
  • 180100Z 33009KT 7000 SHRA FEW017 FEW020TCU BKN030 09/07 Q1017 TEMPO NSW

TAF TAF LEBL
Valide du 18 à 00h jusqu'au 19 à 00h UTC


172300Z 1800/1824 34009KT 9999 FEW020 SCT050 TX12/1812Z TN04/1806Z
PROB30
TEMPO 1800/1803 SHRA FEW020CB BKN025
TEMPO 1803/1810 34012G22KT
PROB30
TEMPO 1813/1818 23006KT
Pas de NOTAMs connus pour ce terrain.



MET'MAP, la Météo Aéronautique d'un coup d'oeil ! - Copyright ORBIFLY Décembre 2007 - Disclaimer

ORBIFLY MET'MAP TEAM :

Programmation & Développement : Alexandra Zaïnal
Conception & Développement : Baudouin d'Aumeries
Co-Programmation & Développement : Marc-Olivier Méhu
Soutien technique & logistique : Manuel Goepfert

Contact : metmap@orbifly.com




SOURCES & CREDITS :

   NOAA